Time;durP1;ratioP1;P1;durP2;ratioP2;P2;SDS_P1;SDS_P2;PMS_P1;PMS_P2;Temp;Humidity;BMP_temperature;BMP_pressure;BME280_temperature;BME280_humidity;BME280_pressure;Samples;Min_cycle;Max_cycle;Signal;HPM_P1;HPM_P2
2023/07/28 00:02:09;;;;;;;53.05;24.58;;;18.20;99.90;;;;;;5058768;28;20427;-75
2023/07/28 00:04:36;;;;;;;35.65;22.50;;;18.20;99.90;;;;;;5042972;28;20037;-76
2023/07/28 00:07:02;;;;;;;28.40;19.85;;;18.20;99.90;;;;;;5047527;28;20036;-75
2023/07/28 00:09:28;;;;;;;44.40;23.70;;;18.20;99.90;;;;;;5054081;28;20127;-76
2023/07/28 00:11:59;;;;;;;40.25;21.67;;;18.20;99.90;;;;;;5063302;28;20123;-76
2023/07/28 00:14:25;;;;;;;46.75;23.67;;;18.20;99.90;;;;;;5053602;28;20055;-75
2023/07/28 00:16:56;;;;;;;40.50;21.17;;;18.20;99.90;;;;;;5059304;28;20529;-75
2023/07/28 00:19:22;;;;;;;33.58;20.63;;;18.20;99.90;;;;;;5046179;28;20048;-75
2023/07/28 00:21:48;;;;;;;25.13;18.70;;;18.20;99.90;;;;;;5063778;28;20063;-76
2023/07/28 00:24:14;;;;;;;30.48;20.98;;;18.20;99.90;;;;;;5056854;28;20049;-76
2023/07/28 00:26:40;;;;;;;21.10;17.88;;;18.20;99.90;;;;;;5064938;28;20106;-76
2023/07/28 00:29:07;;;;;;;34.08;21.25;;;18.20;99.90;;;;;;5061221;28;20044;-76
2023/07/28 00:31:33;;;;;;;44.42;22.77;;;18.20;99.90;;;;;;5053853;28;20051;-76
2023/07/28 00:34:00;;;;;;;26.83;19.77;;;18.20;99.90;;;;;;5066182;28;20044;-76
2023/07/28 00:36:25;;;;;;;32.00;21.02;;;18.20;99.90;;;;;;5049742;28;20494;-76
2023/07/28 00:38:54;;;;;;;29.33;19.88;;;18.20;99.90;;;;;;5065858;28;20044;-75
2023/07/28 00:41:19;;;;;;;33.63;21.88;;;18.20;99.90;;;;;;5060935;28;20055;-76
2023/07/28 00:43:45;;;;;;;28.33;19.67;;;18.20;99.90;;;;;;5072010;28;20036;-76
2023/07/28 00:46:13;;;;;;;44.63;23.63;;;18.20;99.90;;;;;;5052281;28;20385;-76
2023/07/28 00:48:40;;;;;;;29.55;21.38;;;18.20;99.90;;;;;;5053800;28;20048;-76
2023/07/28 00:51:10;;;;;;;37.25;21.65;;;18.20;99.90;;;;;;5031464;28;20041;-76
2023/07/28 00:53:36;;;;;;;50.17;25.48;;;18.20;99.90;;;;;;5056604;28;20040;-76
2023/07/28 00:56:03;;;;;;;22.83;18.50;;;18.20;99.90;;;;;;5060183;28;20266;-75
2023/07/28 00:58:30;;;;;;;51.53;24.85;;;18.20;99.90;;;;;;5068103;28;20123;-75
2023/07/28 01:00:55;;;;;;;27.08;18.85;;;18.20;99.90;;;;;;5061651;28;20041;-75
2023/07/28 01:03:22;;;;;;;23.15;18.40;;;18.20;99.90;;;;;;5062581;28;20091;-75
2023/07/28 01:06:26;;;;;;;23.13;19.45;;;18.20;99.90;;;;;;5052890;28;20037;-76
2023/07/28 01:09:09;;;;;;;46.20;24.52;;;18.20;99.90;;;;;;5058540;28;20051;-75
2023/07/28 01:11:35;;;;;;;35.40;20.17;;;18.20;99.90;;;;;;5058357;28;20895;-76
2023/07/28 01:14:01;;;;;;;36.47;23.38;;;18.20;99.90;;;;;;5068344;28;20078;-75
2023/07/28 01:16:27;;;;;;;96.57;33.30;;;18.20;99.90;;;;;;5047304;28;20052;-76
2023/07/28 01:18:52;;;;;;;27.75;21.60;;;18.20;99.90;;;;;;5046717;28;20049;-75
2023/07/28 01:21:28;;;;;;;32.83;23.90;;;18.20;99.90;;;;;;5055277;28;20078;-76
2023/07/28 01:24:14;;;;;;;30.73;21.92;;;18.10;99.90;;;;;;5061994;28;20514;-76
2023/07/28 01:26:40;;;;;;;62.95;28.05;;;18.20;99.90;;;;;;5048886;28;20053;-76
2023/07/28 01:29:07;;;;;;;30.08;22.73;;;18.20;99.90;;;;;;5053755;28;20572;-76
2023/07/28 01:31:33;;;;;;;51.53;26.50;;;18.10;99.90;;;;;;5036566;28;20052;-76
2023/07/28 01:33:59;;;;;;;56.35;26.25;;;18.20;99.90;;;;;;5036171;28;20032;-76
2023/07/28 01:36:28;;;;;;;54.22;27.33;;;18.10;99.90;;;;;;5050324;28;20079;-76
2023/07/28 01:38:54;;;;;;;52.17;25.60;;;18.10;99.90;;;;;;5053672;28;20040;-76
2023/07/28 01:41:19;;;;;;;34.08;23.23;;;18.20;99.90;;;;;;5051514;28;20040;-76
2023/07/28 01:43:45;;;;;;;40.00;24.17;;;18.20;99.90;;;;;;5051641;28;20037;-75
2023/07/28 01:46:11;;;;;;;36.35;24.95;;;18.10;99.90;;;;;;5053689;28;20517;-75
2023/07/28 01:48:40;;;;;;;32.22;23.50;;;18.10;99.90;;;;;;5051968;28;20044;-76
2023/07/28 01:51:06;;;;;;;42.67;26.23;;;18.20;99.90;;;;;;5034811;28;20044;-76
2023/07/28 01:53:32;;;;;;;39.72;25.02;;;18.10;99.90;;;;;;5036311;28;20372;-75
2023/07/28 01:55:58;;;;;;;39.90;24.95;;;18.10;99.90;;;;;;5053877;28;20253;-75
2023/07/28 01:58:23;;;;;;;37.13;26.00;;;18.10;99.90;;;;;;5047827;28;20990;-76
2023/07/28 02:00:49;;;;;;;49.10;27.70;;;18.10;99.90;;;;;;5031468;28;20041;-75
2023/07/28 02:03:15;;;;;;;60.22;30.23;;;18.20;99.90;;;;;;5052437;28;20044;-76
2023/07/28 02:05:40;;;;;;;40.97;26.70;;;18.10;99.90;;;;;;5051587;28;20076;-75
2023/07/28 02:08:06;;;;;;;36.72;26.33;;;18.10;99.90;;;;;;5036558;28;20033;-75
2023/07/28 02:10:32;;;;;;;51.25;28.67;;;18.10;99.90;;;;;;5054923;28;20064;-76
2023/07/28 02:12:58;;;;;;;87.07;32.92;;;18.20;99.90;;;;;;5052714;28;20384;-76
2023/07/28 02:15:23;;;;;;;38.92;26.02;;;18.20;99.90;;;;;;5050831;28;20825;-76
2023/07/28 02:17:49;;;;;;;38.72;23.98;;;18.10;99.90;;;;;;5054818;28;20074;-76
2023/07/28 02:20:15;;;;;;;34.60;24.42;;;18.20;99.90;;;;;;5042747;28;20044;-76
2023/07/28 02:22:42;;;;;;;38.30;24.45;;;18.10;99.90;;;;;;5053272;28;20040;-76
2023/07/28 02:25:08;;;;;;;38.30;23.90;;;18.10;99.90;;;;;;5055871;28;20742;-76
2023/07/28 02:27:34;;;;;;;34.58;22.33;;;18.10;99.90;;;;;;5057503;28;20224;-76
2023/07/28 02:30:00;;;;;;;32.30;21.35;;;18.10;99.90;;;;;;5056303;28;20099;-76
2023/07/28 02:32:28;;;;;;;26.67;20.92;;;18.10;99.90;;;;;;5041216;28;20049;-76
2023/07/28 02:34:57;;;;;;;30.92;21.92;;;18.20;99.90;;;;;;5038467;28;20052;-76
2023/07/28 02:37:23;;;;;;;35.60;23.35;;;18.20;99.90;;;;;;5039400;28;20072;-76
2023/07/28 02:39:48;;;;;;;47.40;25.48;;;18.10;99.90;;;;;;5056469;28;20118;-76
2023/07/28 02:42:14;;;;;;;27.90;20.05;;;18.10;99.90;;;;;;5057894;28;20044;-76
2023/07/28 02:44:40;;;;;;;36.75;21.98;;;18.10;99.90;;;;;;5042647;28;20063;-75
2023/07/28 02:47:06;;;;;;;27.20;20.55;;;18.20;99.90;;;;;;5055044;28;20060;-75
2023/07/28 02:49:32;;;;;;;28.52;22.10;;;18.10;99.90;;;;;;5055267;28;20093;-76
2023/07/28 02:51:58;;;;;;;29.02;21.65;;;18.10;99.90;;;;;;5054707;28;20044;-76
2023/07/28 02:54:25;;;;;;;40.78;23.95;;;18.10;99.90;;;;;;5054768;28;20044;-76
2023/07/28 02:56:51;;;;;;;31.20;22.60;;;18.20;99.90;;;;;;5055481;28;20509;-76
2023/07/28 02:59:17;;;;;;;36.45;23.40;;;18.10;99.90;;;;;;5057087;28;20204;-76
2023/07/28 03:01:43;;;;;;;31.83;22.67;;;18.10;99.90;;;;;;5037626;28;20045;-76
2023/07/28 03:04:09;;;;;;;33.65;22.48;;;18.10;99.90;;;;;;5057330;28;20091;-76
2023/07/28 03:06:34;;;;;;;33.15;22.52;;;18.10;99.90;;;;;;5056442;28;20048;-75
2023/07/28 03:09:00;;;;;;;33.72;23.00;;;18.20;99.90;;;;;;5057522;28;20040;-75
2023/07/28 03:11:26;;;;;;;28.92;21.75;;;18.10;99.90;;;;;;5058661;28;20633;-76
2023/07/28 03:13:52;;;;;;;33.13;22.60;;;18.10;99.90;;;;;;5054241;28;20049;-76
2023/07/28 03:16:17;;;;;;;30.45;21.85;;;18.10;99.90;;;;;;5055866;28;20055;-76
2023/07/28 03:18:43;;;;;;;32.92;23.58;;;18.10;99.90;;;;;;5053915;28;20233;-76
2023/07/28 03:21:09;;;;;;;31.00;24.05;;;18.10;99.90;;;;;;5038570;28;20036;-76
2023/07/28 03:23:35;;;;;;;30.17;22.95;;;18.10;99.90;;;;;;5038467;28;20036;-76
2023/07/28 03:26:01;;;;;;;30.08;22.75;;;18.10;99.90;;;;;;5054521;28;20122;-76
2023/07/28 03:28:27;;;;;;;31.75;26.25;;;18.10;99.90;;;;;;5038693;28;20098;-76
2023/07/28 03:30:53;;;;;;;34.75;26.25;;;18.10;99.90;;;;;;5054791;28;20075;-76
2023/07/28 03:33:19;;;;;;;32.88;26.10;;;18.10;99.90;;;;;;5051351;28;20411;-75
2023/07/28 03:35:44;;;;;;;33.97;25.65;;;18.10;99.90;;;;;;5057000;28;20135;-75
2023/07/28 03:38:10;;;;;;;31.42;24.52;;;18.10;99.90;;;;;;5055427;28;20071;-76
2023/07/28 03:40:36;;;;;;;40.33;29.08;;;18.10;99.90;;;;;;5037818;28;20596;-75
2023/07/28 03:43:03;;;;;;;28.35;24.73;;;18.10;99.90;;;;;;5037501;28;20290;-75
2023/07/28 03:45:29;;;;;;;28.50;23.85;;;18.10;99.90;;;;;;5052732;28;20075;-76
2023/07/28 03:47:55;;;;;;;31.40;25.63;;;18.10;99.90;;;;;;5054287;28;20043;-76
2023/07/28 03:50:20;;;;;;;36.13;27.30;;;18.10;99.90;;;;;;5052355;28;20052;-76
2023/07/28 03:52:49;;;;;;;35.15;26.30;;;18.10;99.90;;;;;;5042869;28;20044;-76
2023/07/28 03:55:15;;;;;;;29.27;25.67;;;18.10;99.90;;;;;;5058067;28;20049;-76
2023/07/28 03:57:41;;;;;;;30.75;25.67;;;18.00;99.90;;;;;;5040901;28;20052;-75
2023/07/28 04:00:08;;;;;;;31.08;25.70;;;18.10;99.90;;;;;;5039337;28;20213;-75
2023/07/28 04:02:33;;;;;;;30.10;23.35;;;18.10;99.90;;;;;;5058401;28;20044;-75
2023/07/28 04:04:59;;;;;;;35.70;27.33;;;18.10;99.90;;;;;;5058725;28;20112;-76
2023/07/28 04:07:25;;;;;;;37.00;25.75;;;18.10;99.90;;;;;;5045847;28;20067;-75
2023/07/28 04:09:51;;;;;;;34.83;26.70;;;18.10;99.90;;;;;;5059094;28;20086;-76
2023/07/28 04:12:16;;;;;;;38.03;24.80;;;18.10;99.90;;;;;;5059720;28;20048;-76
2023/07/28 04:14:42;;;;;;;37.85;25.55;;;18.10;99.90;;;;;;5058326;28;20060;-76
2023/07/28 04:17:08;;;;;;;42.33;27.13;;;18.20;99.90;;;;;;5054308;28;20523;-75
2023/07/28 04:19:34;;;;;;;30.42;25.20;;;18.10;99.90;;;;;;5061100;28;20448;-76
2023/07/28 04:22:01;;;;;;;31.48;23.70;;;18.10;99.90;;;;;;5051881;28;20053;-76
2023/07/28 04:24:27;;;;;;;34.25;23.35;;;18.20;99.90;;;;;;5059556;28;20105;-76
2023/07/28 04:26:53;;;;;;;35.28;25.05;;;18.20;99.90;;;;;;5058871;28;20041;-75
2023/07/28 04:29:19;;;;;;;32.58;23.85;;;18.20;99.90;;;;;;5059066;28;20515;-76
2023/07/28 04:31:44;;;;;;;32.58;23.98;;;18.20;99.90;;;;;;5051484;28;20090;-76
2023/07/28 04:34:10;;;;;;;42.10;26.92;;;18.20;99.90;;;;;;5058094;28;20102;-76
2023/07/28 04:36:38;;;;;;;54.83;31.25;;;18.20;99.90;;;;;;5055846;28;20132;-76
2023/07/28 04:39:04;;;;;;;36.38;26.05;;;18.20;99.90;;;;;;5046915;28;20044;-76
2023/07/28 04:41:30;;;;;;;34.45;24.25;;;18.20;99.90;;;;;;5057534;28;20045;-76
2023/07/28 04:43:56;;;;;;;42.85;25.90;;;18.20;99.90;;;;;;5047160;28;20368;-76
2023/07/28 04:46:22;;;;;;;43.03;27.00;;;18.20;99.90;;;;;;5059140;28;20503;-76
2023/07/28 04:48:48;;;;;;;35.92;25.27;;;18.20;99.90;;;;;;5048606;28;20128;-76
2023/07/28 04:51:13;;;;;;;26.75;22.40;;;18.20;99.90;;;;;;5046137;28;20057;-76
2023/07/28 04:53:39;;;;;;;47.47;26.00;;;18.20;99.90;;;;;;5048980;28;20067;-75
2023/07/28 04:56:05;;;;;;;29.30;21.38;;;18.20;99.90;;;;;;5051301;28;20507;-75
2023/07/28 04:58:30;;;;;;;35.42;24.95;;;18.30;99.90;;;;;;5046751;28;20087;-75
2023/07/28 05:00:56;;;;;;;37.17;25.63;;;18.30;99.90;;;;;;5045835;28;20052;-76
2023/07/28 05:03:22;;;;;;;29.17;23.42;;;18.30;99.90;;;;;;5057254;28;20040;-76
2023/07/28 05:05:48;;;;;;;42.85;24.48;;;18.30;99.90;;;;;;5066927;28;20041;-75
2023/07/28 05:08:13;;;;;;;24.00;21.40;;;18.30;99.90;;;;;;5048004;28;20066;-76
2023/07/28 05:10:41;;;;;;;32.08;22.45;;;18.30;99.90;;;;;;5046959;28;20574;-75
2023/07/28 05:13:10;;;;;;;30.10;22.75;;;18.30;99.90;;;;;;5044650;28;20042;-76
2023/07/28 05:15:35;;;;;;;26.95;21.80;;;18.30;99.90;;;;;;5039720;28;20740;-76
2023/07/28 05:18:01;;;;;;;30.27;20.95;;;18.30;99.90;;;;;;5041796;28;20116;-76
2023/07/28 05:20:27;;;;;;;28.38;20.77;;;18.30;99.90;;;;;;5050959;28;20037;-76
2023/07/28 05:22:53;;;;;;;29.38;22.55;;;18.30;99.90;;;;;;5033421;28;20044;-77
2023/07/28 05:25:19;;;;;;;25.15;21.40;;;18.30;99.90;;;;;;5038643;28;20056;-76
2023/07/28 05:27:45;;;;;;;41.22;26.20;;;18.30;99.90;;;;;;5052986;28;20053;-76
2023/07/28 05:30:10;;;;;;;42.10;26.95;;;18.30;99.90;;;;;;5065702;28;20037;-76
2023/07/28 05:32:36;;;;;;;31.17;23.60;;;18.30;99.90;;;;;;5057976;28;20104;-76
2023/07/28 05:35:02;;;;;;;30.60;23.75;;;18.30;99.90;;;;;;5050954;28;20036;-77
2023/07/28 05:37:28;;;;;;;27.65;23.55;;;18.30;99.90;;;;;;5062438;28;20965;-76
2023/07/28 05:39:56;;;;;;;30.55;23.15;;;18.30;99.90;;;;;;5062382;28;20051;-76
2023/07/28 05:42:24;;;;;;;30.77;23.80;;;18.40;99.90;;;;;;5045784;28;20041;-76
2023/07/28 05:44:52;;;;;;;36.78;25.33;;;18.40;99.90;;;;;;5048246;28;20037;-77
2023/07/28 05:47:17;;;;;;;31.20;24.00;;;18.50;99.90;;;;;;5052350;28;20075;-76
2023/07/28 05:49:43;;;;;;;49.10;28.92;;;18.50;99.90;;;;;;5072413;28;20045;-76
2023/07/28 05:52:09;;;;;;;28.10;22.48;;;18.50;99.90;;;;;;5068708;28;20068;-76
2023/07/28 05:54:34;;;;;;;27.30;22.48;;;18.50;99.90;;;;;;5061987;28;20503;-76
2023/07/28 05:57:00;;;;;;;33.83;24.38;;;18.50;99.90;;;;;;5043747;28;20029;-76
2023/07/28 05:59:26;;;;;;;32.15;23.48;;;18.50;99.90;;;;;;5046822;28;20579;-76
2023/07/28 06:01:52;;;;;;;31.55;22.58;;;18.50;99.90;;;;;;5056443;28;20111;-78
2023/07/28 06:04:18;;;;;;;29.90;24.38;;;18.50;99.90;;;;;;5058607;28;20079;-76
2023/07/28 06:06:44;;;;;;;37.40;26.25;;;18.60;99.90;;;;;;5044658;28;20065;-78
2023/07/28 06:09:09;;;;;;;37.63;26.95;;;18.60;99.90;;;;;;5040570;28;20037;-77
2023/07/28 06:11:35;;;;;;;26.55;23.00;;;18.60;99.90;;;;;;5060680;28;20131;-77
2023/07/28 06:14:01;;;;;;;36.40;27.95;;;18.60;99.90;;;;;;5064186;28;20060;-77
2023/07/28 06:16:26;;;;;;;25.55;22.10;;;18.60;99.90;;;;;;5064717;28;20032;-77
2023/07/28 06:18:52;;;;;;;25.42;22.67;;;18.70;99.90;;;;;;5063048;28;20521;-77
2023/07/28 06:21:18;;;;;;;25.40;21.65;;;18.70;99.90;;;;;;5042475;28;20102;-77
2023/07/28 06:23:44;;;;;;;27.02;24.13;;;18.70;99.90;;;;;;5062787;28;20044;-76
2023/07/28 06:26:09;;;;;;;40.47;29.17;;;18.70;99.90;;;;;;5056552;28;20049;-77
2023/07/28 06:28:37;;;;;;;26.63;22.45;;;18.80;99.90;;;;;;5061408;28;20067;-77
2023/07/28 06:31:03;;;;;;;29.50;23.40;;;18.70;99.90;;;;;;5036907;28;20036;-77
2023/07/28 06:33:29;;;;;;;22.15;19.88;;;18.80;99.90;;;;;;5060294;28;20548;-77
2023/07/28 06:35:55;;;;;;;40.25;24.63;;;18.80;99.90;;;;;;5042326;28;20055;-77
2023/07/28 06:38:20;;;;;;;22.17;18.23;;;18.70;99.90;;;;;;5047063;28;20056;-77
2023/07/28 06:40:46;;;;;;;23.42;19.17;;;18.80;99.90;;;;;;5049263;28;20048;-77
2023/07/28 06:43:12;;;;;;;20.42;18.45;;;18.80;99.90;;;;;;5045796;28;20036;-78
2023/07/28 06:45:41;;;;;;;25.88;20.48;;;18.80;99.90;;;;;;5043393;28;20056;-77
2023/07/28 06:48:09;;;;;;;21.85;19.55;;;18.80;99.90;;;;;;5056685;28;20086;-77
2023/07/28 06:50:35;;;;;;;20.92;18.55;;;18.80;99.90;;;;;;5057291;28;20036;-78
2023/07/28 06:53:01;;;;;;;21.52;19.25;;;18.80;99.90;;;;;;5062252;28;20838;-77
2023/07/28 06:55:26;;;;;;;18.52;15.23;;;18.80;99.90;;;;;;5052626;28;20213;-76
2023/07/28 06:57:52;;;;;;;17.60;15.07;;;18.80;99.90;;;;;;5065277;28;20078;-78
2023/07/28 07:00:18;;;;;;;18.48;16.40;;;18.90;99.90;;;;;;5045431;28;20099;-78
2023/07/28 07:02:44;;;;;;;16.85;13.98;;;18.90;99.90;;;;;;5059864;28;20066;-77
2023/07/28 07:05:11;;;;;;;15.55;13.63;;;18.90;99.90;;;;;;5043538;28;20135;-77
2023/07/28 07:07:38;;;;;;;22.48;16.17;;;18.90;99.90;;;;;;5045753;28;20070;-77
2023/07/28 07:10:04;;;;;;;21.60;16.20;;;19.00;99.90;;;;;;5062863;28;20036;-77
2023/07/28 07:12:30;;;;;;;18.05;13.07;;;19.10;99.90;;;;;;5058269;28;20059;-77
2023/07/28 07:14:56;;;;;;;12.98;11.63;;;19.10;99.90;;;;;;5067671;28;20044;-78
2023/07/28 07:17:22;;;;;;;13.18;11.70;;;19.20;99.90;;;;;;5048856;28;20069;-77
2023/07/28 07:19:48;;;;;;;14.43;11.95;;;19.30;99.90;;;;;;5060045;28;20060;-78
2023/07/28 07:22:13;;;;;;;13.25;10.43;;;19.40;99.90;;;;;;5062423;28;20040;-78
2023/07/28 07:24:39;;;;;;;12.15;10.98;;;19.40;99.90;;;;;;5040705;28;20461;-77
2023/07/28 07:27:06;;;;;;;11.77;10.55;;;19.40;99.90;;;;;;5066675;28;20044;-77
2023/07/28 07:29:32;;;;;;;14.55;12.35;;;19.50;99.90;;;;;;5065353;28;21188;-78
2023/07/28 07:31:58;;;;;;;14.63;12.10;;;19.50;99.90;;;;;;5067717;28;20048;-78
2023/07/28 07:34:24;;;;;;;14.45;12.73;;;19.50;99.90;;;;;;5064191;28;20059;-78
2023/07/28 07:36:50;;;;;;;16.80;13.77;;;19.60;99.90;;;;;;5065207;28;20071;-78
2023/07/28 07:39:16;;;;;;;13.60;11.23;;;19.80;99.90;;;;;;5063688;28;20764;-79
2023/07/28 07:41:41;;;;;;;11.38;9.60;;;19.90;99.90;;;;;;5048085;28;20036;-78
2023/07/28 07:44:07;;;;;;;11.93;9.50;;;20.00;99.90;;;;;;5061843;28;20178;-78
2023/07/28 07:46:33;;;;;;;13.57;11.65;;;20.20;99.90;;;;;;5072497;28;20051;-78
2023/07/28 07:48:59;;;;;;;10.40;9.18;;;20.30;99.90;;;;;;5068594;28;20048;-78
2023/07/28 07:51:25;;;;;;;12.48;9.00;;;20.40;99.90;;;;;;5061751;28;20571;-79
2023/07/28 07:53:51;;;;;;;10.82;8.60;;;20.50;99.90;;;;;;5061226;28;20045;-78
2023/07/28 07:56:17;;;;;;;10.48;9.23;;;20.50;99.90;;;;;;5057512;28;20513;-79
2023/07/28 07:58:43;;;;;;;12.20;11.10;;;20.60;99.90;;;;;;5047137;28;20064;-79
2023/07/28 08:01:09;;;;;;;13.30;11.90;;;20.60;99.90;;;;;;5050037;28;20076;-79
2023/07/28 08:03:38;;;;;;;12.23;10.93;;;20.80;99.90;;;;;;5066790;28;20078;-77
2023/07/28 08:06:03;;;;;;;11.38;9.68;;;20.90;99.90;;;;;;5066567;28;20077;-78
2023/07/28 08:08:32;;;;;;;10.43;9.30;;;21.00;99.90;;;;;;5043649;28;20056;-78
2023/07/28 08:10:58;;;;;;;12.60;11.27;;;21.20;99.90;;;;;;5062265;28;20052;-79
2023/07/28 08:13:24;;;;;;;12.23;9.00;;;21.30;99.90;;;;;;5051579;28;20510;-80
2023/07/28 08:15:49;;;;;;;8.30;7.50;;;21.50;99.90;;;;;;5040846;28;20048;-80
2023/07/28 08:18:18;;;;;;;9.65;8.40;;;21.60;99.90;;;;;;5047937;28;20110;-79
2023/07/28 08:20:44;;;;;;;9.68;8.68;;;21.60;99.90;;;;;;5056537;28;20110;-80
2023/07/28 08:23:10;;;;;;;10.23;9.00;;;21.60;99.90;;;;;;5063775;28;20099;-79
2023/07/28 08:25:36;;;;;;;11.30;10.10;;;21.60;99.90;;;;;;5060855;28;20044;-79
2023/07/28 08:28:03;;;;;;;12.93;8.80;;;21.60;99.90;;;;;;5060642;28;20115;-79
2023/07/28 08:30:29;;;;;;;10.10;8.25;;;21.60;99.90;;;;;;5071728;28;20139;-79
2023/07/28 08:32:54;;;;;;;12.48;8.63;;;21.40;99.90;;;;;;5046963;28;20056;-79
2023/07/28 08:35:20;;;;;;;9.98;7.72;;;21.40;99.90;;;;;;5054768;28;20040;-80
2023/07/28 08:37:46;;;;;;;10.32;7.57;;;21.40;99.90;;;;;;5071413;28;20528;-80
2023/07/28 08:40:12;;;;;;;12.48;8.80;;;21.50;99.90;;;;;;5060124;28;20044;-79
2023/07/28 08:42:39;;;;;;;8.27;7.47;;;21.60;99.90;;;;;;5062416;28;20048;-81
2023/07/28 08:45:08;;;;;;;10.75;8.18;;;21.70;99.90;;;;;;5053023;28;20072;-79
2023/07/28 08:47:34;;;;;;;10.18;8.27;;;21.70;99.90;;;;;;5048819;28;20333;-80
2023/07/28 08:50:00;;;;;;;9.10;6.97;;;21.70;99.90;;;;;;5074249;28;20045;-80
2023/07/28 08:52:26;;;;;;;9.43;7.30;;;21.70;99.90;;;;;;5055706;28;20040;-80
2023/07/28 08:54:52;;;;;;;9.00;8.07;;;21.70;99.90;;;;;;5070963;28;22617;-80
2023/07/28 08:57:19;;;;;;;9.18;7.60;;;21.80;99.90;;;;;;5050949;28;20572;-80
2023/07/28 08:59:47;;;;;;;11.45;8.38;;;21.90;99.90;;;;;;5047312;28;20080;-80
2023/07/28 09:02:18;;;;;;;11.35;8.65;;;22.00;99.90;;;;;;5058637;28;20040;-80
2023/07/28 09:04:48;;;;;;;9.57;7.85;;;22.00;99.90;;;;;;5053416;28;20135;-80
2023/07/28 09:07:14;;;;;;;9.82;8.32;;;22.00;99.90;;;;;;5077111;28;20086;-80
2023/07/28 09:09:41;;;;;;;8.43;7.53;;;21.90;99.90;;;;;;5063764;28;20466;-80
2023/07/28 09:12:08;;;;;;;9.10;7.00;;;21.90;99.90;;;;;;5050710;28;20064;-80
2023/07/28 09:14:36;;;;;;;9.10;7.88;;;21.70;99.90;;;;;;5046498;28;20045;-80
2023/07/28 09:17:13;;;;;;;7.70;6.57;;;21.60;99.90;;;;;;5048863;28;20040;-80
2023/07/28 09:19:55;;;;;;;8.55;7.53;;;21.50;99.90;;;;;;5065068;28;20074;-80
2023/07/28 09:22:21;;;;;;;9.02;7.22;;;21.40;99.90;;;;;;5060439;28;20131;-80
2023/07/28 09:24:48;;;;;;;11.65;7.07;;;21.30;99.90;;;;;;5067072;28;20048;-79
2023/07/28 09:27:29;;;;;;;10.10;7.20;;;21.20;99.90;;;;;;5049365;28;20407;-80
2023/07/28 09:29:55;;;;;;;8.90;6.10;;;21.20;99.90;;;;;;5050084;28;20036;-80
2023/07/28 09:32:32;;;;;;;9.38;6.78;;;21.20;99.90;;;;;;5050104;28;20483;-79
2023/07/28 09:35:10;;;;;;;6.63;5.10;;;21.20;99.90;;;;;;5049463;28;20503;-80
2023/07/28 09:37:47;;;;;;;7.65;6.07;;;21.30;99.90;;;;;;5039191;28;20055;-80
2023/07/28 09:40:16;;;;;;;7.32;5.53;;;21.60;99.90;;;;;;5058242;28;20048;-80
2023/07/28 09:42:49;;;;;;;7.28;5.70;;;21.70;99.90;;;;;;5062462;28;20036;-81
2023/07/28 09:45:18;;;;;;;8.18;5.30;;;21.70;99.90;;;;;;5055810;28;20049;-80
2023/07/28 09:47:50;;;;;;;8.48;5.50;;;21.80;99.90;;;;;;5043681;28;20141;-80
2023/07/28 09:50:17;;;;;;;6.30;5.05;;;21.70;99.90;;;;;;5045509;28;20101;-81
2023/07/28 09:52:46;;;;;;;6.05;4.38;;;21.80;99.90;;;;;;5048808;28;20461;-81
2023/07/28 09:55:16;;;;;;;7.60;4.80;;;21.90;99.90;;;;;;5063017;28;20040;-81
2023/07/28 09:57:51;;;;;;;7.95;5.40;;;22.00;99.90;;;;;;5058141;28;20494;-81
2023/07/28 10:00:18;;;;;;;6.45;4.22;;;22.00;99.90;;;;;;5056430;28;20032;-81
2023/07/28 10:02:45;;;;;;;6.95;4.28;;;22.00;99.90;;;;;;5051098;28;20047;-81
2023/07/28 10:05:15;;;;;;;5.10;4.10;;;22.00;99.90;;;;;;5036075;28;20041;-81
2023/07/28 10:07:43;;;;;;;5.13;4.05;;;21.90;99.90;;;;;;5041608;28;21101;-81
2023/07/28 10:10:11;;;;;;;4.63;4.00;;;22.00;99.90;;;;;;5057460;28;20045;-81
2023/07/28 10:12:44;;;;;;;6.75;4.35;;;22.20;99.90;;;;;;5039752;28;20388;-81
2023/07/28 10:15:15;;;;;;;6.40;4.70;;;22.30;99.90;;;;;;5051977;28;20457;-81
2023/07/28 10:17:49;;;;;;;6.82;4.25;;;22.30;99.90;;;;;;5049108;28;20036;-81
2023/07/28 10:20:35;;;;;;;5.75;4.05;;;22.20;99.90;;;;;;5044520;28;20048;-82
2023/07/28 10:23:07;;;;;;;7.53;4.75;;;22.10;99.90;;;;;;5047595;28;20047;-82
2023/07/28 10:25:37;;;;;;;6.50;5.32;;;22.10;99.90;;;;;;5051025;28;20048;-82
2023/07/28 10:28:05;;;;;;;8.30;5.57;;;22.20;99.90;;;;;;5055650;28;20041;-82
2023/07/28 10:30:37;;;;;;;7.38;5.45;;;22.30;99.90;;;;;;5046053;28;20044;-83
2023/07/28 10:33:03;;;;;;;6.25;5.43;;;22.40;99.90;;;;;;5047695;28;20130;-82
2023/07/28 10:35:31;;;;;;;7.38;5.72;;;22.50;99.90;;;;;;5050310;28;20127;-82
2023/07/28 10:37:57;;;;;;;6.60;5.60;;;22.60;99.90;;;;;;5061026;28;20043;-81
2023/07/28 10:40:30;;;;;;;8.65;5.72;;;22.60;99.90;;;;;;5063772;28;20053;-83
2023/07/28 10:42:59;;;;;;;6.75;5.28;;;22.70;99.90;;;;;;5050888;28;20044;-82
2023/07/28 10:45:27;;;;;;;6.82;6.05;;;22.90;99.90;;;;;;5051974;28;20049;-83
2023/07/28 10:47:55;;;;;;;6.03;5.35;;;23.00;99.90;;;;;;5052001;28;20490;-82
2023/07/28 10:50:22;;;;;;;5.68;5.10;;;23.00;99.90;;;;;;5047742;28;20051;-83
2023/07/28 10:52:48;;;;;;;7.25;6.38;;;23.00;99.90;;;;;;5049862;28;20050;-83
2023/07/28 10:55:22;;;;;;;7.72;6.30;;;23.00;99.90;;;;;;5058304;28;20141;-83
2023/07/28 10:57:49;;;;;;;7.45;6.00;;;23.10;99.90;;;;;;5060049;28;20044;-83
2023/07/28 11:00:18;;;;;;;6.10;5.50;;;23.10;99.90;;;;;;5062501;28;20048;-83
2023/07/28 11:02:49;;;;;;;6.20;5.60;;;23.30;99.90;;;;;;5051266;28;20526;-84
2023/07/28 11:05:27;;;;;;;7.03;6.18;;;23.50;99.90;;;;;;5057875;28;20490;-84
2023/07/28 11:07:58;;;;;;;6.93;5.72;;;23.70;99.90;;;;;;5049718;28;20044;-84
2023/07/28 11:10:25;;;;;;;7.65;5.63;;;23.80;99.90;;;;;;5052887;28;20048;-87
2023/07/28 11:12:52;;;;;;;6.18;5.57;;;24.00;99.90;;;;;;5053121;28;20044;-86
2023/07/28 11:15:19;;;;;;;7.00;4.63;;;24.10;99.90;;;;;;5050824;28;20134;-85
2023/07/28 11:17:50;;;;;;;6.50;5.00;;;24.20;99.90;;;;;;5065127;28;20511;-84
2023/07/28 11:20:20;;;;;;;6.78;5.20;;;24.30;99.90;;;;;;5061919;28;20096;-86
2023/07/28 11:22:53;;;;;;;7.85;6.35;;;24.30;99.90;;;;;;5050489;28;20530;-86
2023/07/28 11:25:20;;;;;;;8.57;5.93;;;24.40;99.90;;;;;;5060895;28;20403;-85
2023/07/28 11:27:47;;;;;;;9.98;7.38;;;24.30;99.90;;;;;;5063787;28;20056;-85
2023/07/28 11:30:14;;;;;;;10.80;6.80;;;24.10;99.90;;;;;;5069131;28;20073;-85
2023/07/28 11:32:44;;;;;;;9.35;7.13;;;23.90;99.90;;;;;;5061854;28;20048;-87
2023/07/28 11:35:15;;;;;;;9.75;8.68;;;23.70;99.90;;;;;;5066801;28;20052;-83
2023/07/28 11:37:42;;;;;;;9.75;8.75;;;23.50;99.90;;;;;;5065939;28;20056;-83
2023/07/28 11:40:13;;;;;;;10.45;9.35;;;23.20;99.90;;;;;;5064500;28;20226;-83
2023/07/28 11:42:48;;;;;;;11.13;9.98;;;23.00;99.90;;;;;;5065294;28;20032;-82
2023/07/28 11:45:16;;;;;;;12.65;11.35;;;23.00;99.90;;;;;;5046940;28;20075;-83
2023/07/28 11:48:06;;;;;;;12.23;11.02;;;23.10;99.90;;;;;;5055775;28;20073;-83
2023/07/28 11:50:39;;;;;;;11.75;10.55;;;23.40;99.90;;;;;;5047859;28;20210;-84
2023/07/28 11:53:06;;;;;;;15.57;13.27;;;23.70;99.90;;;;;;5060564;28;20557;-84
2023/07/28 11:55:34;;;;;;;15.30;13.80;;;23.90;99.90;;;;;;5047904;28;20051;-84
2023/07/28 11:58:04;;;;;;;12.32;11.23;;;24.10;99.90;;;;;;5059534;28;20060;-85
2023/07/28 12:00:35;;;;;;;13.70;12.50;;;24.20;99.90;;;;;;5046744;28;20051;-85
2023/07/28 12:03:03;;;;;;;14.38;13.00;;;24.20;99.90;;;;;;5067255;28;20407;-86
2023/07/28 12:05:29;;;;;;;12.63;11.38;;;24.30;99.90;;;;;;5044974;28;20044;-85
2023/07/28 12:07:55;;;;;;;11.57;9.52;;;24.20;99.90;;;;;;5059172;28;20047;-84
2023/07/28 12:10:21;;;;;;;10.57;9.52;;;24.10;99.90;;;;;;5062828;28;20045;-85
2023/07/28 12:12:48;;;;;;;11.98;9.07;;;24.10;99.90;;;;;;5042370;28;20044;-86
2023/07/28 12:15:24;;;;;;;10.80;9.25;;;24.20;99.90;;;;;;5057193;28;20070;-85
2023/07/28 12:18:02;;;;;;;10.00;8.85;;;24.10;99.90;;;;;;5076433;28;20127;-85
2023/07/28 12:20:52;;;;;;;9.83;8.83;;;24.20;99.90;;;;;;5061072;28;20048;-85
2023/07/28 12:23:19;;;;;;;9.63;7.35;;;24.30;99.90;;;;;;5051946;28;20044;-85
2023/07/28 12:25:46;;;;;;;8.80;7.82;;;24.50;99.90;;;;;;5054759;28;20044;-84
2023/07/28 12:28:12;;;;;;;8.35;7.55;;;24.70;99.90;;;;;;5070859;28;20170;-82
2023/07/28 12:30:38;;;;;;;10.02;8.50;;;24.70;99.90;;;;;;5051894;28;20062;-84
2023/07/28 12:33:05;;;;;;;9.25;8.27;;;24.70;99.90;;;;;;5060862;28;20363;-84
2023/07/28 12:35:34;;;;;;;9.85;8.73;;;24.80;99.90;;;;;;5047812;28;20051;-83